Time;durP1;ratioP1;P1;durP2;ratioP2;P2;SDS_P1;SDS_P2;PMS_P1;PMS_P2;Temp;Humidity;BMP_temperature;BMP_pressure;BME280_temperature;BME280_humidity;BME280_pressure;Samples;Min_cycle;Max_cycle;Signal;HPM_P1;HPM_P2
2022/07/29 00:01:53;;;;;;;3.93;1.40;;;20.60;95.30;;;;;;4982090;28;20482;-73
2022/07/29 00:04:20;;;;;;;3.47;1.47;;;20.60;95.20;;;;;;4985290;28;20463;-72
2022/07/29 00:06:47;;;;;;;2.93;1.70;;;20.60;95.20;;;;;;4999415;28;20544;-73
2022/07/29 00:09:15;;;;;;;3.40;1.30;;;20.70;95.20;;;;;;4991984;28;20517;-72
2022/07/29 00:11:42;;;;;;;2.17;1.27;;;20.60;95.30;;;;;;4991243;28;20947;-73
2022/07/29 00:14:09;;;;;;;2.20;1.50;;;20.50;95.50;;;;;;4986264;28;20466;-73
2022/07/29 00:16:37;;;;;;;7.40;1.67;;;20.50;95.70;;;;;;4988250;28;20489;-73
2022/07/29 00:19:04;;;;;;;2.13;1.47;;;20.50;95.80;;;;;;4984545;28;20488;-72
2022/07/29 00:21:31;;;;;;;3.60;1.30;;;20.40;95.50;;;;;;4982674;28;20504;-72
2022/07/29 00:23:58;;;;;;;4.03;2.03;;;20.40;95.80;;;;;;4986383;28;20975;-73
2022/07/29 00:26:31;;;;;;;1.70;1.20;;;20.30;96.10;;;;;;4986090;28;20964;-73
2022/07/29 00:28:58;;;;;;;2.60;1.30;;;20.30;96.20;;;;;;4987035;28;20482;-72
2022/07/29 00:31:25;;;;;;;1.97;1.57;;;20.40;96.60;;;;;;4982045;28;20477;-72
2022/07/29 00:33:52;;;;;;;1.70;1.13;;;20.40;96.30;;;;;;4991361;28;20490;-72
2022/07/29 00:36:18;;;;;;;1.80;1.50;;;20.40;96.30;;;;;;4984193;28;20932;-72
2022/07/29 00:38:45;;;;;;;1.83;1.20;;;20.40;96.40;;;;;;4987472;28;20459;-72
2022/07/29 00:41:12;;;;;;;1.70;1.20;;;20.50;96.30;;;;;;4987252;28;20211;-72
2022/07/29 00:43:41;;;;;;;4.07;1.83;;;20.40;97.00;;;;;;4988309;28;20470;-73
2022/07/29 00:46:08;;;;;;;2.87;1.50;;;20.40;97.20;;;;;;4990723;28;20572;-74
2022/07/29 00:48:34;;;;;;;3.37;1.17;;;20.40;97.30;;;;;;4990549;28;20476;-72
2022/07/29 00:51:03;;;;;;;6.30;1.23;;;20.40;97.30;;;;;;4992523;28;20461;-72
2022/07/29 00:53:31;;;;;;;2.43;1.60;;;20.50;97.20;;;;;;4984928;28;20725;-72
2022/07/29 00:55:58;;;;;;;7.73;1.50;;;20.50;97.50;;;;;;4982614;28;20462;-73
2022/07/29 00:58:27;;;;;;;6.20;1.47;;;20.40;97.30;;;;;;4982021;28;20461;-72
2022/07/29 01:00:55;;;;;;;2.60;1.50;;;20.30;97.60;;;;;;4983109;28;20454;-72
2022/07/29 01:03:22;;;;;;;5.93;1.47;;;20.30;97.70;;;;;;4981245;28;20490;-72
2022/07/29 01:05:49;;;;;;;3.63;1.23;;;20.00;98.10;;;;;;4978754;28;20492;-72
2022/07/29 01:08:17;;;;;;;1.67;1.50;;;20.10;98.90;;;;;;4989138;28;20485;-72
2022/07/29 01:10:45;;;;;;;2.30;1.50;;;20.00;98.60;;;;;;4986964;28;20493;-73
2022/07/29 01:13:12;;;;;;;2.80;1.60;;;20.10;98.60;;;;;;4984597;28;20460;-73
2022/07/29 01:15:44;;;;;;;4.43;2.50;;;20.00;98.70;;;;;;4977674;28;20479;-73
2022/07/29 01:18:17;;;;;;;4.83;1.60;;;20.00;99.20;;;;;;4995004;28;20572;-72
2022/07/29 01:21:08;;;;;;;3.00;1.60;;;19.90;99.50;;;;;;4985304;28;20500;-73
2022/07/29 01:24:12;;;;;;;3.13;1.40;;;19.90;99.70;;;;;;4986316;28;20481;-72
2022/07/29 01:26:50;;;;;;;4.00;1.70;;;19.80;99.70;;;;;;4988485;28;20464;-72
2022/07/29 01:29:26;;;;;;;1.53;1.10;;;19.80;99.90;;;;;;4984847;28;22636;-72
2022/07/29 01:31:57;;;;;;;4.03;1.40;;;19.70;99.90;;;;;;4984003;28;20462;-72
2022/07/29 01:34:30;;;;;;;1.20;0.90;;;19.80;99.90;;;;;;4988331;28;20885;-72
2022/07/29 01:37:05;;;;;;;1.93;1.30;;;19.70;99.90;;;;;;4987396;28;20492;-72
2022/07/29 01:39:35;;;;;;;2.47;1.50;;;19.80;99.90;;;;;;4985537;28;20481;-72
2022/07/29 01:42:11;;;;;;;2.77;1.47;;;19.80;99.90;;;;;;4984083;28;20486;-72
2022/07/29 01:44:46;;;;;;;1.37;1.10;;;19.80;99.90;;;;;;4980633;28;20807;-72
2022/07/29 01:47:20;;;;;;;1.63;1.10;;;19.80;99.90;;;;;;4985042;28;20461;-73
2022/07/29 01:49:50;;;;;;;4.20;1.37;;;19.70;99.90;;;;;;4985313;28;20560;-73
2022/07/29 01:52:24;;;;;;;3.20;1.50;;;19.60;99.90;;;;;;4989997;28;20465;-73
2022/07/29 01:54:55;;;;;;;1.60;1.23;;;19.70;99.90;;;;;;4991333;28;21203;-73
2022/07/29 01:57:26;;;;;;;1.93;1.43;;;19.80;99.90;;;;;;4991265;28;20583;-73
2022/07/29 01:59:57;;;;;;;1.70;1.00;;;19.80;99.90;;;;;;4985702;28;20481;-72
2022/07/29 02:02:25;;;;;;;2.50;1.40;;;19.60;99.90;;;;;;4990274;28;20477;-72
2022/07/29 02:04:54;;;;;;;6.33;1.40;;;19.50;99.90;;;;;;4986031;28;20493;-72
2022/07/29 02:07:23;;;;;;;3.20;1.83;;;19.40;99.90;;;;;;4989607;28;20474;-72
2022/07/29 02:09:51;;;;;;;4.23;1.40;;;19.40;99.90;;;;;;4988668;28;20486;-72
2022/07/29 02:12:21;;;;;;;11.57;1.90;;;19.20;99.90;;;;;;4985907;28;20873;-72
2022/07/29 02:14:51;;;;;;;6.87;1.93;;;19.20;99.90;;;;;;4989858;28;20456;-73
2022/07/29 02:17:24;;;;;;;1.60;1.37;;;19.10;99.90;;;;;;4988011;28;21498;-73
2022/07/29 02:19:52;;;;;;;2.20;1.40;;;19.20;99.90;;;;;;4984009;28;20981;-71
2022/07/29 02:22:20;;;;;;;2.10;1.40;;;19.20;99.90;;;;;;4987543;28;20482;-71
2022/07/29 02:24:48;;;;;;;1.50;1.30;;;19.20;99.90;;;;;;4989637;28;20469;-71
2022/07/29 02:27:15;;;;;;;3.10;1.30;;;19.20;99.90;;;;;;4988584;28;20466;-71
2022/07/29 02:29:43;;;;;;;5.00;1.50;;;19.10;99.90;;;;;;4982980;28;20492;-72
2022/07/29 02:32:12;;;;;;;3.30;1.67;;;19.20;99.90;;;;;;4985532;28;20463;-72
2022/07/29 02:34:42;;;;;;;1.87;1.40;;;19.30;99.90;;;;;;4990324;28;20462;-72
2022/07/29 02:37:10;;;;;;;2.83;1.27;;;19.30;99.90;;;;;;4986851;28;20466;-72
2022/07/29 02:39:39;;;;;;;9.93;2.07;;;19.30;99.90;;;;;;4982875;28;21163;-71
2022/07/29 02:42:08;;;;;;;2.30;1.33;;;19.10;99.90;;;;;;4988749;28;20497;-71
2022/07/29 02:44:35;;;;;;;4.77;1.70;;;19.20;99.90;;;;;;4986955;28;20461;-71
2022/07/29 02:47:11;;;;;;;3.30;1.30;;;19.20;99.90;;;;;;4989415;28;20466;-71
2022/07/29 02:49:43;;;;;;;3.73;1.30;;;19.10;99.90;;;;;;4987465;28;20497;-71
2022/07/29 02:52:17;;;;;;;4.00;2.50;;;19.00;99.90;;;;;;4987341;28;20458;-72
2022/07/29 02:54:52;;;;;;;6.70;1.50;;;18.90;99.90;;;;;;4990656;28;20551;-72
2022/07/29 02:57:23;;;;;;;2.27;1.47;;;18.80;99.90;;;;;;4984817;28;20463;-72
2022/07/29 02:59:53;;;;;;;3.40;1.97;;;18.80;99.90;;;;;;4983822;28;20478;-72
2022/07/29 03:02:22;;;;;;;1.70;1.47;;;18.80;99.90;;;;;;4984541;28;20479;-73
2022/07/29 03:04:52;;;;;;;1.90;1.53;;;18.80;99.90;;;;;;4987256;28;20807;-72
2022/07/29 03:07:21;;;;;;;2.17;1.20;;;18.60;99.90;;;;;;4981410;28;20836;-72
2022/07/29 03:09:48;;;;;;;5.70;1.43;;;18.50;99.90;;;;;;4982718;28;20482;-72
2022/07/29 03:12:16;;;;;;;1.77;1.67;;;18.60;99.90;;;;;;4986828;28;21097;-71
2022/07/29 03:14:44;;;;;;;4.70;1.80;;;18.60;99.90;;;;;;4989945;28;20458;-71
2022/07/29 03:17:12;;;;;;;2.80;1.53;;;18.80;99.90;;;;;;4990783;28;20464;-71
2022/07/29 03:19:39;;;;;;;1.80;1.20;;;18.80;99.90;;;;;;4992679;28;20490;-71
2022/07/29 03:22:08;;;;;;;1.83;1.17;;;18.80;99.90;;;;;;4984048;28;20456;-72
2022/07/29 03:24:37;;;;;;;1.70;1.40;;;18.80;99.90;;;;;;4982658;28;20556;-72
2022/07/29 03:27:05;;;;;;;9.63;1.60;;;18.70;99.90;;;;;;4982496;28;20497;-72
2022/07/29 03:29:32;;;;;;;2.17;1.37;;;18.80;99.90;;;;;;4979649;28;20489;-72
2022/07/29 03:32:02;;;;;;;3.17;1.40;;;18.80;99.90;;;;;;4986920;28;20842;-72
2022/07/29 03:34:29;;;;;;;1.60;1.47;;;19.00;99.90;;;;;;4975132;28;20462;-72
2022/07/29 03:36:56;;;;;;;6.40;2.57;;;18.90;99.90;;;;;;4986311;28;20487;-72
2022/07/29 03:39:28;;;;;;;2.30;1.33;;;18.80;99.90;;;;;;4993550;28;20482;-71
2022/07/29 03:41:58;;;;;;;2.70;1.63;;;18.70;99.90;;;;;;4997376;28;20465;-72
2022/07/29 03:44:26;;;;;;;2.27;1.30;;;18.70;99.90;;;;;;4981826;28;20491;-72
2022/07/29 03:46:56;;;;;;;2.90;2.50;;;18.50;99.90;;;;;;4983973;28;20457;-72
2022/07/29 03:49:26;;;;;;;2.53;1.33;;;18.40;99.90;;;;;;4991529;28;21013;-72
2022/07/29 03:51:53;;;;;;;2.63;1.47;;;18.40;99.90;;;;;;4994082;28;20469;-72
2022/07/29 03:54:20;;;;;;;1.97;1.40;;;18.50;99.90;;;;;;4979585;28;20458;-72
2022/07/29 03:56:51;;;;;;;1.50;1.33;;;18.50;99.90;;;;;;4987175;28;20516;-73
2022/07/29 03:59:20;;;;;;;3.60;1.67;;;18.60;99.90;;;;;;4986359;28;21024;-72
2022/07/29 04:01:47;;;;;;;5.43;1.70;;;18.60;99.90;;;;;;4981996;28;20902;-72
2022/07/29 04:04:15;;;;;;;7.43;1.63;;;18.60;99.90;;;;;;4983317;28;20828;-72
2022/07/29 04:06:43;;;;;;;1.83;1.60;;;18.50;99.90;;;;;;4986800;28;20501;-72
2022/07/29 04:09:10;;;;;;;4.13;1.60;;;18.40;99.90;;;;;;4986579;28;21019;-72
2022/07/29 04:11:39;;;;;;;1.40;1.30;;;18.30;99.90;;;;;;4991211;28;20455;-72
2022/07/29 04:14:07;;;;;;;1.40;1.30;;;18.30;99.90;;;;;;4996628;28;20550;-71
2022/07/29 04:16:34;;;;;;;3.80;2.07;;;18.30;99.90;;;;;;4981531;28;20467;-72
2022/07/29 04:19:00;;;;;;;4.07;1.87;;;18.30;99.90;;;;;;4986943;28;20493;-72
2022/07/29 04:21:27;;;;;;;3.43;1.43;;;18.50;99.90;;;;;;4993458;28;20471;-72
2022/07/29 04:23:54;;;;;;;6.60;1.43;;;18.40;99.90;;;;;;4990290;28;20572;-72
2022/07/29 04:26:21;;;;;;;3.97;2.03;;;18.50;99.90;;;;;;4988500;28;20463;-72
2022/07/29 04:28:48;;;;;;;1.40;1.30;;;18.50;99.90;;;;;;4990053;28;20552;-72
2022/07/29 04:31:16;;;;;;;1.63;1.43;;;18.60;99.90;;;;;;4981761;28;20465;-72
2022/07/29 04:33:43;;;;;;;2.30;1.23;;;18.70;99.90;;;;;;4994819;28;20992;-72
2022/07/29 04:36:11;;;;;;;2.77;2.10;;;18.70;99.90;;;;;;4994425;28;20469;-72
2022/07/29 04:38:38;;;;;;;3.10;1.40;;;18.70;99.90;;;;;;4989900;28;20465;-72
2022/07/29 04:41:06;;;;;;;3.83;1.40;;;18.70;99.90;;;;;;4995163;28;20497;-72
2022/07/29 04:43:33;;;;;;;3.30;2.03;;;18.70;99.90;;;;;;4993219;28;20477;-72
2022/07/29 04:46:00;;;;;;;1.50;1.13;;;18.80;99.90;;;;;;4990026;28;20572;-72
2022/07/29 04:48:28;;;;;;;10.63;1.87;;;18.80;99.90;;;;;;4987169;28;20466;-72
2022/07/29 04:50:55;;;;;;;3.60;1.50;;;18.80;99.90;;;;;;4992718;28;20461;-72
2022/07/29 04:53:22;;;;;;;3.87;1.50;;;18.80;99.90;;;;;;4984226;28;20466;-72
2022/07/29 04:55:49;;;;;;;6.47;2.00;;;18.80;99.90;;;;;;4988011;28;21006;-72
2022/07/29 04:58:16;;;;;;;3.00;1.67;;;18.60;99.90;;;;;;4994662;28;20469;-72
2022/07/29 05:00:43;;;;;;;5.30;1.57;;;18.50;99.90;;;;;;4993345;28;20502;-74
2022/07/29 05:03:10;;;;;;;6.30;1.83;;;18.60;99.90;;;;;;4996249;28;20479;-72
2022/07/29 05:05:39;;;;;;;2.80;2.00;;;18.60;99.90;;;;;;4991361;28;20452;-71
2022/07/29 05:08:06;;;;;;;3.30;1.70;;;18.60;99.90;;;;;;4984858;28;20471;-71
2022/07/29 05:10:35;;;;;;;7.63;1.40;;;18.80;99.90;;;;;;4992164;28;20582;-71
2022/07/29 05:13:02;;;;;;;6.80;2.00;;;18.70;99.90;;;;;;4994325;28;20473;-72
2022/07/29 05:15:29;;;;;;;3.00;1.97;;;18.70;99.90;;;;;;4997319;28;20500;-74
2022/07/29 05:17:55;;;;;;;8.33;1.80;;;18.40;99.90;;;;;;4992992;28;20454;-73
2022/07/29 05:20:26;;;;;;;7.73;2.60;;;18.00;99.90;;;;;;5032466;22;20510;-69
2022/07/29 05:22:54;;;;;;;6.60;2.60;;;17.80;99.90;;;;;;5038437;28;20529;-69
2022/07/29 05:25:21;;;;;;;3.90;2.60;;;17.90;99.90;;;;;;5039898;28;20428;-69
2022/07/29 05:27:48;;;;;;;6.23;2.47;;;17.70;99.90;;;;;;5041442;28;20454;-70
2022/07/29 05:30:15;;;;;;;3.47;2.20;;;17.40;99.90;;;;;;5040022;28;20554;-69
2022/07/29 05:32:41;;;;;;;9.83;2.37;;;17.20;99.90;;;;;;5042341;28;20544;-70
2022/07/29 05:35:09;;;;;;;6.77;2.57;;;17.10;99.90;;;;;;5041172;28;20452;-69
2022/07/29 05:37:36;;;;;;;8.10;2.30;;;17.10;99.90;;;;;;5043145;28;20448;-70
2022/07/29 05:40:05;;;;;;;2.80;2.43;;;17.20;99.90;;;;;;5041759;28;20477;-70
2022/07/29 05:42:32;;;;;;;3.60;2.90;;;17.20;99.90;;;;;;5040369;28;20533;-70
2022/07/29 05:44:59;;;;;;;3.30;1.90;;;17.30;99.90;;;;;;5042568;28;20483;-70
2022/07/29 05:47:26;;;;;;;3.30;2.13;;;17.30;99.90;;;;;;5042857;28;20995;-69
2022/07/29 05:49:55;;;;;;;2.03;1.63;;;17.10;99.90;;;;;;5046063;28;20470;-69
2022/07/29 05:52:22;;;;;;;2.40;2.20;;;17.00;99.90;;;;;;5040390;28;20545;-70
2022/07/29 05:54:49;;;;;;;4.13;2.23;;;16.90;99.90;;;;;;5037389;28;20451;-70
2022/07/29 05:57:18;;;;;;;5.63;2.77;;;17.10;99.90;;;;;;5036601;28;20554;-70
2022/07/29 05:59:46;;;;;;;6.63;2.60;;;17.40;99.90;;;;;;5041628;28;20478;-70
2022/07/29 06:02:13;;;;;;;2.43;2.20;;;17.40;99.90;;;;;;5043140;28;20436;-70
2022/07/29 06:04:39;;;;;;;7.80;2.60;;;17.40;99.90;;;;;;5042928;28;20480;-69
2022/07/29 06:07:06;;;;;;;3.30;2.00;;;17.40;99.90;;;;;;5032721;28;21107;-70
2022/07/29 06:09:34;;;;;;;2.80;2.20;;;17.50;99.90;;;;;;5040220;28;20488;-70
2022/07/29 06:12:01;;;;;;;3.53;2.63;;;17.80;99.90;;;;;;5037709;28;20523;-70
2022/07/29 06:14:29;;;;;;;3.40;2.50;;;18.30;99.90;;;;;;5039229;28;20462;-70
2022/07/29 06:16:56;;;;;;;3.00;2.17;;;18.30;99.90;;;;;;5044448;28;20455;-70
2022/07/29 06:19:23;;;;;;;5.47;2.43;;;18.30;99.90;;;;;;5042404;28;20480;-70
2022/07/29 06:21:50;;;;;;;5.73;2.33;;;18.10;99.90;;;;;;5040547;28;20475;-70
2022/07/29 06:24:17;;;;;;;4.50;3.10;;;18.00;99.90;;;;;;5042345;28;20475;-70
2022/07/29 06:26:44;;;;;;;2.83;2.37;;;18.00;99.90;;;;;;5042650;28;20436;-71
2022/07/29 06:29:12;;;;;;;3.30;2.83;;;17.90;99.90;;;;;;5045221;28;21113;-71
2022/07/29 06:31:40;;;;;;;5.93;2.33;;;18.00;99.90;;;;;;5041708;28;20567;-71
2022/07/29 06:34:07;;;;;;;3.23;2.37;;;18.20;99.90;;;;;;5042118;28;20455;-71
2022/07/29 06:36:36;;;;;;;4.73;2.73;;;18.30;99.90;;;;;;5041324;28;20448;-71
2022/07/29 06:39:05;;;;;;;14.30;2.80;;;18.30;99.90;;;;;;5035220;28;20484;-71
2022/07/29 06:41:32;;;;;;;8.40;3.07;;;18.60;99.90;;;;;;5043768;28;20514;-71
2022/07/29 06:44:00;;;;;;;3.00;2.20;;;18.80;99.90;;;;;;5039472;28;20513;-71
2022/07/29 06:46:27;;;;;;;3.60;2.40;;;19.00;99.90;;;;;;5041075;28;20451;-71
2022/07/29 06:48:55;;;;;;;3.70;3.00;;;19.20;99.90;;;;;;5041550;28;20460;-71
2022/07/29 06:51:24;;;;;;;5.00;1.80;;;19.30;99.90;;;;;;5041682;28;20448;-71
2022/07/29 06:53:52;;;;;;;4.20;2.50;;;19.40;99.90;;;;;;5038960;28;20435;-71
2022/07/29 06:56:19;;;;;;;4.30;2.60;;;19.60;99.90;;;;;;5037973;28;20559;-72
2022/07/29 06:58:46;;;;;;;2.43;2.23;;;19.70;99.90;;;;;;5043658;28;20458;-72
2022/07/29 07:01:15;;;;;;;6.03;3.03;;;19.60;99.90;;;;;;5042355;28;20452;-71
2022/07/29 07:03:42;;;;;;;3.37;2.83;;;19.70;99.90;;;;;;5043080;28;20503;-72
2022/07/29 07:06:11;;;;;;;3.70;3.40;;;19.90;99.90;;;;;;5040528;28;20845;-72
2022/07/29 07:08:37;;;;;;;2.60;2.40;;;20.00;99.90;;;;;;5041202;28;20909;-72
2022/07/29 07:11:05;;;;;;;4.33;2.97;;;19.80;99.90;;;;;;5040649;28;20635;-72
2022/07/29 07:13:34;;;;;;;6.50;5.50;;;19.80;99.90;;;;;;5041899;28;20447;-72
2022/07/29 07:16:01;;;;;;;5.67;2.63;;;19.80;99.90;;;;;;5040100;28;20448;-70
2022/07/29 07:18:28;;;;;;;5.70;3.40;;;19.80;99.90;;;;;;5043350;28;20445;-72
2022/07/29 07:20:55;;;;;;;3.80;2.83;;;20.00;99.90;;;;;;5029526;28;20487;-71
2022/07/29 07:23:23;;;;;;;3.83;2.80;;;20.00;99.90;;;;;;5044805;28;20940;-71
2022/07/29 07:25:51;;;;;;;4.70;2.33;;;20.10;99.90;;;;;;5036998;28;20978;-72
2022/07/29 07:28:18;;;;;;;5.20;4.70;;;20.50;99.90;;;;;;5037080;28;20524;-71
2022/07/29 07:30:46;;;;;;;7.43;3.30;;;21.00;99.90;;;;;;5036470;28;20550;-72
2022/07/29 07:33:14;;;;;;;3.10;2.80;;;21.10;99.90;;;;;;5039643;28;20514;-72
2022/07/29 07:35:41;;;;;;;4.17;2.80;;;20.80;99.90;;;;;;5040229;28;20448;-72
2022/07/29 07:38:07;;;;;;;5.17;4.73;;;20.90;99.90;;;;;;5043381;28;20466;-72
2022/07/29 07:40:36;;;;;;;13.33;3.83;;;20.90;99.90;;;;;;5037888;28;20472;-72
2022/07/29 07:43:03;;;;;;;4.60;2.50;;;21.10;99.90;;;;;;5037491;28;20463;-71
2022/07/29 07:45:32;;;;;;;4.23;3.83;;;21.00;99.90;;;;;;5042655;28;20478;-72
2022/07/29 07:47:59;;;;;;;3.37;2.63;;;21.00;99.90;;;;;;5040829;28;20825;-72
2022/07/29 07:50:26;;;;;;;3.90;3.20;;;21.20;99.90;;;;;;5043387;28;20482;-72
2022/07/29 07:52:57;;;;;;;4.57;3.17;;;21.20;99.90;;;;;;5038649;28;20479;-72
2022/07/29 07:55:25;;;;;;;3.07;2.87;;;21.00;99.90;;;;;;5037900;28;20835;-71
2022/07/29 07:57:53;;;;;;;3.40;2.87;;;21.00;99.90;;;;;;5037580;28;20598;-71
2022/07/29 08:00:20;;;;;;;2.63;2.43;;;21.20;99.90;;;;;;5039100;28;20474;-71
2022/07/29 08:02:47;;;;;;;3.10;2.53;;;21.50;99.90;;;;;;5038062;28;20470;-71
2022/07/29 08:05:16;;;;;;;4.07;2.90;;;21.70;99.90;;;;;;5041741;28;20853;-71
2022/07/29 08:07:44;;;;;;;13.00;3.10;;;21.80;99.90;;;;;;5039879;28;20790;-71
2022/07/29 08:10:11;;;;;;;6.53;2.60;;;21.60;99.90;;;;;;5041568;28;20461;-71
2022/07/29 08:12:38;;;;;;;3.63;3.30;;;21.90;99.90;;;;;;5038859;28;20460;-72
2022/07/29 08:15:08;;;;;;;4.53;2.50;;;21.90;99.90;;;;;;5040310;28;20440;-71
2022/07/29 08:17:35;;;;;;;4.63;2.60;;;22.00;99.90;;;;;;5040508;28;20536;-71
2022/07/29 08:20:02;;;;;;;7.73;2.90;;;22.00;99.90;;;;;;5037870;28;20910;-72
2022/07/29 08:22:29;;;;;;;4.40;3.10;;;22.10;99.90;;;;;;5030706;28;20463;-71
2022/07/29 08:24:56;;;;;;;5.40;3.03;;;22.40;99.90;;;;;;5040743;28;20475;-71
2022/07/29 08:27:23;;;;;;;6.70;2.80;;;22.60;99.90;;;;;;5035641;28;20464;-72
2022/07/29 08:29:50;;;;;;;3.20;2.30;;;22.80;99.90;;;;;;5033652;28;20531;-72
2022/07/29 08:32:18;;;;;;;4.40;3.00;;;22.50;99.90;;;;;;5040171;28;20462;-72
2022/07/29 08:34:46;;;;;;;6.73;2.80;;;22.50;99.90;;;;;;5040392;28;20887;-72
2022/07/29 08:37:13;;;;;;;3.77;2.83;;;22.40;99.90;;;;;;5038333;28;20734;-72
2022/07/29 08:39:39;;;;;;;3.90;2.90;;;22.50;99.90;;;;;;5036319;28;20521;-72
2022/07/29 08:42:07;;;;;;;5.20;2.63;;;22.00;99.90;;;;;;5042620;28;20441;-71
2022/07/29 08:44:35;;;;;;;3.83;3.47;;;21.60;99.90;;;;;;5038758;28;20879;-71
2022/07/29 08:47:02;;;;;;;7.87;2.97;;;21.50;99.90;;;;;;5039916;28;20960;-71
2022/07/29 08:49:31;;;;;;;5.37;3.17;;;21.60;99.90;;;;;;5040329;28;20460;-71
2022/07/29 08:51:59;;;;;;;7.97;3.63;;;22.00;99.90;;;;;;5039518;28;20983;-71
2022/07/29 08:54:26;;;;;;;5.20;3.80;;;21.90;99.90;;;;;;5036926;28;20462;-70
2022/07/29 08:56:53;;;;;;;7.13;3.63;;;21.80;99.90;;;;;;5042903;28;20452;-71
2022/07/29 08:59:22;;;;;;;4.03;2.97;;;21.70;99.90;;;;;;5037848;28;20472;-71
2022/07/29 09:01:53;;;;;;;5.87;3.10;;;21.80;99.90;;;;;;5034681;28;20441;-71
2022/07/29 09:04:21;;;;;;;3.00;2.70;;;21.50;99.90;;;;;;5039921;28;20570;-71
2022/07/29 09:06:53;;;;;;;3.37;2.73;;;21.70;99.90;;;;;;5039098;28;20447;-71
2022/07/29 09:09:20;;;;;;;4.83;2.90;;;21.70;99.90;;;;;;5041576;28;20471;-71
2022/07/29 09:11:47;;;;;;;3.47;2.93;;;21.80;99.90;;;;;;5031108;28;20468;-71
2022/07/29 09:14:14;;;;;;;11.50;5.00;;;21.70;99.90;;;;;;5034932;28;20461;-72
2022/07/29 09:16:49;;;;;;;6.33;4.20;;;21.70;99.90;;;;;;5040138;28;20459;-72
2022/07/29 09:19:24;;;;;;;7.20;2.97;;;21.70;99.90;;;;;;5036824;28;20492;-70
2022/07/29 09:21:59;;;;;;;4.13;3.30;;;21.50;99.90;;;;;;5038863;28;20827;-71
2022/07/29 09:24:36;;;;;;;3.47;3.10;;;21.70;99.90;;;;;;5039883;28;20479;-71
2022/07/29 09:27:03;;;;;;;6.03;3.70;;;21.50;99.90;;;;;;5040021;28;20441;-71
2022/07/29 09:29:31;;;;;;;5.63;3.10;;;21.30;99.90;;;;;;5036809;28;21087;-71
2022/07/29 09:31:58;;;;;;;4.63;3.30;;;21.20;99.90;;;;;;5037437;28;20518;-71
2022/07/29 09:34:26;;;;;;;10.97;3.33;;;21.20;99.90;;;;;;5040897;28;21028;-71
2022/07/29 09:36:55;;;;;;;4.40;3.60;;;21.10;99.90;;;;;;5040479;28;20494;-71
2022/07/29 09:39:30;;;;;;;4.20;2.40;;;21.10;99.90;;;;;;5037969;28;20550;-71
2022/07/29 09:41:58;;;;;;;2.83;2.57;;;20.80;99.90;;;;;;5039528;28;20446;-71
2022/07/29 09:44:26;;;;;;;5.27;3.37;;;20.80;99.90;;;;;;5030587;28;21018;-71
2022/07/29 09:46:58;;;;;;;3.53;3.07;;;20.90;99.90;;;;;;5033859;28;20545;-71
2022/07/29 09:49:25;;;;;;;7.23;2.97;;;20.70;99.90;;;;;;5035647;28;20866;-71
2022/07/29 09:52:05;;;;;;;3.27;2.97;;;20.80;99.90;;;;;;5035598;28;20464;-71
2022/07/29 09:54:36;;;;;;;6.20;2.80;;;20.90;99.90;;;;;;5037190;28;20459;-71
2022/07/29 09:57:04;;;;;;;3.03;2.60;;;21.00;99.90;;;;;;5039359;28;20486;-71
2022/07/29 09:59:31;;;;;;;5.53;3.27;;;20.90;99.90;;;;;;5036370;28;20472;-71
2022/07/29 10:01:58;;;;;;;3.07;2.77;;;20.90;99.90;;;;;;5038669;28;20455;-71
2022/07/29 10:04:27;;;;;;;4.80;2.93;;;21.00;99.90;;;;;;5038203;28;20487;-71
2022/07/29 10:06:58;;;;;;;3.40;2.77;;;20.70;99.90;;;;;;5041106;28;20449;-72
2022/07/29 10:09:27;;;;;;;6.40;3.10;;;20.60;99.90;;;;;;5041836;28;20538;-72
2022/07/29 10:12:05;;;;;;;4.20;2.70;;;20.50;99.90;;;;;;5035369;28;21037;-72
2022/07/29 10:14:33;;;;;;;2.93;2.63;;;20.60;99.90;;;;;;5040774;28;20810;-72
2022/07/29 10:17:01;;;;;;;2.97;2.67;;;20.60;99.90;;;;;;5036940;28;21264;-72
2022/07/29 10:19:30;;;;;;;4.43;2.90;;;20.50;99.90;;;;;;5042131;28;20501;-71
2022/07/29 10:21:57;;;;;;;5.30;4.10;;;20.40;99.90;;;;;;5041332;28;20467;-72
2022/07/29 10:24:27;;;;;;;7.00;2.50;;;20.40;99.90;;;;;;5039383;28;20464;-72
2022/07/29 10:26:55;;;;;;;6.13;2.40;;;20.40;99.90;;;;;;5040593;28;21639;-71
2022/07/29 10:29:22;;;;;;;4.03;2.20;;;20.30;99.90;;;;;;5040130;28;20900;-72
2022/07/29 10:31:58;;;;;;;4.17;2.77;;;20.20;99.90;;;;;;5041334;28;20450;-72
2022/07/29 10:34:35;;;;;;;4.90;2.57;;;20.10;99.90;;;;;;5043026;28;20467;-72
2022/07/29 10:37:09;;;;;;;4.97;2.50;;;20.10;99.90;;;;;;5038552;28;20853;-72
2022/07/29 10:39:48;;;;;;;19.30;2.87;;;20.10;99.90;;;;;;5036654;28;20463;-72
2022/07/29 10:42:20;;;;;;;7.80;3.50;;;20.20;99.90;;;;;;5040276;28;20467;-72
2022/07/29 10:44:47;;;;;;;4.53;2.70;;;20.20;99.90;;;;;;5040093;28;20539;-72
2022/07/29 10:47:22;;;;;;;2.90;2.70;;;20.20;99.90;;;;;;5039176;28;20451;-72
2022/07/29 10:49:59;;;;;;;4.83;2.80;;;20.20;99.90;;;;;;5037306;28;20468;-72
2022/07/29 10:52:46;;;;;;;12.30;3.03;;;20.30;99.90;;;;;;5041517;28;20825;-72
2022/07/29 10:55:36;;;;;;;5.40;2.50;;;20.30;99.90;;;;;;5044522;28;20876;-72
2022/07/29 10:58:17;;;;;;;7.57;2.40;;;20.40;99.90;;;;;;5033943;28;20460;-72
2022/07/29 11:00:43;;;;;;;3.23;2.70;;;20.50;99.90;;;;;;5036259;28;20482;-72
2022/07/29 11:03:30;;;;;;;5.13;2.10;;;20.40;99.90;;;;;;5040082;28;20477;-72
2022/07/29 11:05:57;;;;;;;6.77;4.00;;;20.40;99.90;;;;;;5041361;28;20515;-72
2022/07/29 11:08:26;;;;;;;4.60;3.37;;;20.20;99.90;;;;;;5043473;28;20451;-72
2022/07/29 11:11:38;;;;;;;3.13;2.83;;;20.10;99.90;;;;;;5041507;28;20487;-72
2022/07/29 11:14:05;;;;;;;4.03;2.40;;;20.10;99.90;;;;;;5039905;28;20826;-72
2022/07/29 11:17:04;;;;;;;7.93;3.17;;;20.20;99.90;;;;;;5039421;28;20441;-72
2022/07/29 11:19:31;;;;;;;5.00;2.40;;;20.30;99.90;;;;;;5045869;23;20624;-77
2022/07/29 11:21:58;;;;;;;3.40;2.33;;;20.30;99.90;;;;;;5038019;28;20476;-77
2022/07/29 11:24:28;;;;;;;4.27;2.70;;;20.20;99.90;;;;;;5040463;28;20447;-77
2022/07/29 11:27:13;;;;;;;8.50;3.40;;;20.40;99.90;;;;;;5039966;28;20484;-77
2022/07/29 11:29:49;;;;;;;2.77;2.27;;;20.60;99.90;;;;;;5034014;28;20498;-76
2022/07/29 11:32:19;;;;;;;4.97;3.10;;;20.70;99.90;;;;;;5019672;28;20437;-76
2022/07/29 11:34:48;;;;;;;5.60;2.57;;;20.70;99.90;;;;;;5018989;28;20475;-77
2022/07/29 11:37:23;;;;;;;5.50;3.80;;;20.50;99.90;;;;;;5019880;28;20836;-76
2022/07/29 11:40:25;;;;;;;5.70;3.23;;;20.40;99.90;;;;;;5019939;28;20483;-76
2022/07/29 11:42:53;;;;;;;5.70;2.87;;;20.40;99.90;;;;;;5022286;28;20876;-77
2022/07/29 11:45:31;;;;;;;4.10;2.50;;;20.50;99.90;;;;;;5016567;28;20485;-77
2022/07/29 11:47:59;;;;;;;8.23;3.60;;;20.40;99.90;;;;;;5021483;28;20448;-77
2022/07/29 11:50:35;;;;;;;4.27;3.40;;;20.50;99.90;;;;;;5022295;28;20477;-77
2022/07/29 11:53:04;;;;;;;7.20;3.80;;;20.10;99.90;;;;;;5011049;28;20866;-77
2022/07/29 11:55:35;;;;;;;6.73;4.53;;;20.00;99.90;;;;;;5021024;28;20461;-77
2022/07/29 11:58:03;;;;;;;5.43;4.93;;;20.00;99.90;;;;;;5013149;28;20967;-77
2022/07/29 12:00:32;;;;;;;6.60;3.50;;;20.20;99.90;;;;;;5008157;28;20477;-78
2022/07/29 12:03:01;;;;;;;10.93;3.47;;;20.10;99.90;;;;;;5019482;28;20834;-78
2022/07/29 12:05:40;;;;;;;6.83;3.50;;;20.20;99.90;;;;;;5013151;28;20492;-78
2022/07/29 12:08:12;;;;;;;3.17;2.73;;;20.50;99.90;;;;;;5027932;28;20455;-77
2022/07/29 12:10:40;;;;;;;5.97;3.77;;;20.40;99.90;;;;;;5026954;28;20464;-78
2022/07/29 12:13:09;;;;;;;4.10;3.57;;;20.50;99.90;;;;;;5033592;28;20441;-78
2022/07/29 12:15:36;;;;;;;8.67;3.10;;;20.90;99.90;;;;;;5021221;28;20522;-78
2022/07/29 12:18:15;;;;;;;5.07;4.60;;;21.20;99.90;;;;;;5018419;28;20457;-78
2022/07/29 12:20:41;;;;;;;4.00;2.80;;;21.50;99.90;;;;;;4986501;28;1079373;-78
2022/07/29 12:23:11;;;;;;;5.80;3.67;;;21.40;99.90;;;;;;5022187;28;20203;-78
2022/07/29 12:25:39;;;;;;;4.60;3.90;;;21.30;99.90;;;;;;5021024;28;20473;-77
2022/07/29 12:28:12;;;;;;;5.23;3.50;;;21.30;99.90;;;;;;5020938;28;21037;-79
2022/07/29 12:30:41;;;;;;;6.83;3.10;;;21.50;99.90;;;;;;5018982;28;20476;-79
2022/07/29 12:33:13;;;;;;;5.17;3.30;;;21.70;99.90;;;;;;5020195;28;20893;-77
2022/07/29 12:35:40;;;;;;;6.73;2.80;;;21.60;99.90;;;;;;5019150;28;20460;-77
2022/07/29 12:38:08;;;;;;;4.93;4.07;;;21.60;99.90;;;;;;5022083;28;20456;-79
2022/07/29 12:40:34;;;;;;;5.57;3.93;;;21.50;99.90;;;;;;5013441;28;20481;-79
2022/07/29 12:43:14;;;;;;;4.67;3.30;;;21.80;99.90;;;;;;5023336;28;20455;-79
2022/07/29 12:45:43;;;;;;;4.73;3.60;;;21.90;99.90;;;;;;5018267;28;20483;-77
2022/07/29 12:48:10;;;;;;;7.13;3.70;;;22.10;99.90;;;;;;5019943;28;20464;-77
2022/07/29 12:50:38;;;;;;;3.60;2.87;;;22.20;99.90;;;;;;5020245;28;20488;-77
2022/07/29 12:53:13;;;;;;;4.77;3.50;;;22.30;99.90;;;;;;5022614;28;20476;-77
2022/07/29 12:55:42;;;;;;;3.47;2.90;;;22.30;99.90;;;;;;5019235;28;20805;-77
2022/07/29 12:58:09;;;;;;;5.87;3.13;;;22.30;99.90;;;;;;5015639;28;20460;-77